sensor_id;sensor_type;location;lat;lon;timestamp;pressure;altitude;pressure_sealevel;temperature;humidity
48352;BME280;34163;49.314;6.752;2023-04-19T00:01:23;100216.31;;;8.14;100.00
48352;BME280;34163;49.314;6.752;2023-04-19T00:03:49;100213.56;;;8.19;100.00
48352;BME280;34163;49.314;6.752;2023-04-19T00:06:14;100219.63;;;8.23;100.00
48352;BME280;34163;49.314;6.752;2023-04-19T00:08:40;100215.13;;;8.26;100.00
48352;BME280;34163;49.314;6.752;2023-04-19T08:00:13;100147.00;;;7.39;100.00
48352;BME280;34163;49.314;6.752;2023-04-19T08:02:41;100151.13;;;7.49;100.00
48352;BME280;34163;49.314;6.752;2023-04-19T08:05:06;100150.88;;;7.60;100.00
48352;BME280;34163;49.314;6.752;2023-04-19T08:07:32;100142.81;;;7.66;100.00
48352;BME280;34163;49.314;6.752;2023-04-19T08:09:57;100141.72;;;7.73;100.00
48352;BME280;34163;49.314;6.752;2023-04-19T08:12:22;100150.28;;;7.83;100.00
48352;BME280;34163;49.314;6.752;2023-04-19T08:14:50;100137.69;;;7.93;100.00
48352;BME280;34163;49.314;6.752;2023-04-19T08:17:15;100135.84;;;7.98;100.00
48352;BME280;34163;49.314;6.752;2023-04-19T08:19:44;100132.97;;;8.06;100.00
48352;BME280;34163;49.314;6.752;2023-04-19T08:22:10;100128.41;;;8.12;100.00
48352;BME280;34163;49.314;6.752;2023-04-19T08:24:35;100129.06;;;8.21;100.00
48352;BME280;34163;49.314;6.752;2023-04-19T08:27:00;100126.25;;;8.27;100.00
48352;BME280;34163;49.314;6.752;2023-04-19T08:29:26;100131.44;;;8.30;100.00
48352;BME280;34163;49.314;6.752;2023-04-19T08:31:51;100127.84;;;8.32;100.00
48352;BME280;34163;49.314;6.752;2023-04-19T08:34:16;100127.72;;;8.37;100.00
48352;BME280;34163;49.314;6.752;2023-04-19T08:36:42;100124.09;;;8.41;100.00
48352;BME280;34163;49.314;6.752;2023-04-19T08:39:07;100124.03;;;8.44;100.00
48352;BME280;34163;49.314;6.752;2023-04-19T08:41:33;100118.72;;;8.46;100.00
48352;BME280;34163;49.314;6.752;2023-04-19T08:43:58;100115.97;;;8.49;100.00
48352;BME280;34163;49.314;6.752;2023-04-19T08:46:25;100119.31;;;8.56;100.00
48352;BME280;34163;49.314;6.752;2023-04-19T08:49:07;100128.00;;;8.59;100.00
48352;BME280;34163;49.314;6.752;2023-04-19T08:51:44;100120.03;;;8.61;100.00
48352;BME280;34163;49.314;6.752;2023-04-19T08:54:11;100119.03;;;8.65;100.00
48352;BME280;34163;49.314;6.752;2023-04-19T08:56:36;100125.94;;;8.69;100.00
48352;BME280;34163;49.314;6.752;2023-04-19T08:59:01;100110.91;;;8.71;100.00
48352;BME280;34163;49.314;6.752;2023-04-19T09:01:26;100112.59;;;8.73;100.00
48352;BME280;34163;49.314;6.752;2023-04-19T09:03:52;100120.44;;;8.77;100.00
48352;BME280;34163;49.314;6.752;2023-04-19T09:06:17;100111.59;;;8.78;100.00
48352;BME280;34163;49.314;6.752;2023-04-19T09:08:42;100108.84;;;8.82;100.00
48352;BME280;34163;49.314;6.752;2023-04-19T09:11:08;100101.81;;;8.81;100.00
48352;BME280;34163;49.314;6.752;2023-04-19T09:13:33;100102.59;;;8.83;100.00
48352;BME280;34163;49.314;6.752;2023-04-19T09:16:03;100099.16;;;8.81;100.00
48352;BME280;34163;49.314;6.752;2023-04-19T09:18:33;100096.34;;;8.87;100.00
48352;BME280;34163;49.314;6.752;2023-04-19T09:21:26;100089.22;;;8.89;100.00
48352;BME280;34163;49.314;6.752;2023-04-19T09:23:53;100091.84;;;8.89;100.00
48352;BME280;34163;49.314;6.752;2023-04-19T09:26:18;100088.25;;;8.92;100.00
48352;BME280;34163;49.314;6.752;2023-04-19T09:28:54;100087.34;;;8.93;100.00
48352;BME280;34163;49.314;6.752;2023-04-19T09:31:20;100087.38;;;8.32;100.00
48352;BME280;34163;49.314;6.752;2023-04-19T09:33:45;100101.97;;;7.11;100.00
48352;BME280;34163;49.314;6.752;2023-04-19T09:36:10;100085.44;;;7.74;100.00
48352;BME280;34163;49.314;6.752;2023-04-19T09:38:46;100079.75;;;9.64;100.00
48352;BME280;34163;49.314;6.752;2023-04-19T09:41:12;100080.06;;;9.55;100.00
48352;BME280;34163;49.314;6.752;2023-04-19T09:43:38;100071.16;;;9.57;100.00
48352;BME280;34163;49.314;6.752;2023-04-19T09:46:48;100086.91;;;8.79;100.00
48352;BME280;34163;49.314;6.752;2023-04-19T09:48:48;100079.94;;;7.49;100.00
48352;BME280;34163;49.314;6.752;2023-04-19T09:51:14;100082.75;;;7.05;100.00
48352;BME280;34163;49.314;6.752;2023-04-19T09:53:39;100064.13;;;6.76;100.00
48352;BME280;34163;49.314;6.752;2023-04-19T09:56:04;100071.44;;;6.63;100.00
48352;BME280;34163;49.314;6.752;2023-04-19T09:58:30;100069.00;;;6.53;100.00
48352;BME280;34163;49.314;6.752;2023-04-19T10:00:55;100065.84;;;6.38;100.00
48352;BME280;34163;49.314;6.752;2023-04-19T10:03:22;100071.22;;;6.31;100.00
48352;BME280;34163;49.314;6.752;2023-04-19T10:05:53;100066.13;;;6.22;100.00
48352;BME280;34163;49.314;6.752;2023-04-19T10:08:18;100067.97;;;6.18;100.00
48352;BME280;34163;49.314;6.752;2023-04-19T10:10:44;100063.78;;;6.10;100.00
48352;BME280;34163;49.314;6.752;2023-04-19T10:13:11;100061.22;;;6.07;100.00
48352;BME280;34163;49.314;6.752;2023-04-19T10:15:37;100053.66;;;5.87;100.00
48352;BME280;34163;49.314;6.752;2023-04-19T10:18:06;100065.94;;;5.88;100.00
48352;BME280;34163;49.314;6.752;2023-04-19T10:20:33;100064.13;;;5.90;100.00
48352;BME280;34163;49.314;6.752;2023-04-19T10:23:01;100053.66;;;5.87;100.00
48352;BME280;34163;49.314;6.752;2023-04-19T10:25:27;100051.13;;;5.82;100.00
48352;BME280;34163;49.314;6.752;2023-04-19T10:27:53;100055.63;;;5.75;100.00
48352;BME280;34163;49.314;6.752;2023-04-19T10:30:19;100051.38;;;5.70;100.00
48352;BME280;34163;49.314;6.752;2023-04-19T10:32:46;100055.94;;;5.58;100.00
48352;BME280;34163;49.314;6.752;2023-04-19T10:35:16;100047.25;;;5.55;100.00
48352;BME280;34163;49.314;6.752;2023-04-19T10:38:00;100053.47;;;5.51;100.00
48352;BME280;34163;49.314;6.752;2023-04-19T10:45:35;100048.41;;;5.40;100.00
48352;BME280;34163;49.314;6.752;2023-04-19T10:48:03;100043.28;;;5.31;100.00
48352;BME280;34163;49.314;6.752;2023-04-19T10:50:29;100037.19;;;5.30;100.00
48352;BME280;34163;49.314;6.752;2023-04-19T10:52:54;100026.69;;;5.28;100.00
48352;BME280;34163;49.314;6.752;2023-04-19T10:55:19;100023.34;;;5.20;100.00
48352;BME280;34163;49.314;6.752;2023-04-19T10:58:05;100027.78;;;5.15;100.00
48352;BME280;34163;49.314;6.752;2023-04-19T11:00:31;100024.78;;;5.37;100.00
48352;BME280;34163;49.314;6.752;2023-04-19T11:03:00;100023.28;;;6.17;100.00
48352;BME280;34163;49.314;6.752;2023-04-19T11:08:51;100010.19;;;6.92;100.00
48352;BME280;34163;49.314;6.752;2023-04-19T11:11:16;99998.97;;;8.45;100.00
48352;BME280;34163;49.314;6.752;2023-04-19T11:13:42;99995.50;;;9.77;100.00
48352;BME280;34163;49.314;6.752;2023-04-19T11:16:07;99987.03;;;10.14;100.00
48352;BME280;34163;49.314;6.752;2023-04-19T11:18:33;99992.34;;;8.62;100.00
48352;BME280;34163;49.314;6.752;2023-04-19T11:20:58;99979.63;;;7.54;100.00
48352;BME280;34163;49.314;6.752;2023-04-19T11:23:25;99980.56;;;7.18;100.00
48352;BME280;34163;49.314;6.752;2023-04-19T11:25:50;99977.75;;;6.90;100.00
48352;BME280;34163;49.314;6.752;2023-04-19T11:28:17;99975.50;;;6.73;100.00
48352;BME280;34163;49.314;6.752;2023-04-19T11:30:43;99974.91;;;6.62;100.00
48352;BME280;34163;49.314;6.752;2023-04-19T11:33:09;99965.53;;;6.50;100.00
48352;BME280;34163;49.314;6.752;2023-04-19T11:35:36;99962.97;;;6.47;100.00
48352;BME280;34163;49.314;6.752;2023-04-19T11:38:01;99955.28;;;6.38;100.00
48352;BME280;34163;49.314;6.752;2023-04-19T11:40:29;99953.56;;;6.35;100.00
48352;BME280;34163;49.314;6.752;2023-04-19T11:42:55;99956.31;;;6.32;100.00
48352;BME280;34163;49.314;6.752;2023-04-19T11:45:31;99958.13;;;6.28;100.00
48352;BME280;34163;49.314;6.752;2023-04-19T11:47:57;99947.69;;;6.24;100.00
48352;BME280;34163;49.314;6.752;2023-04-19T11:50:44;99950.34;;;6.22;100.00
48352;BME280;34163;49.314;6.752;2023-04-19T11:53:09;99947.09;;;6.11;100.00
48352;BME280;34163;49.314;6.752;2023-04-19T11:55:34;99940.00;;;6.16;100.00
48352;BME280;34163;49.314;6.752;2023-04-19T11:58:00;99947.03;;;6.14;100.00
48352;BME280;34163;49.314;6.752;2023-04-19T12:00:26;99945.53;;;6.04;100.00
48352;BME280;34163;49.314;6.752;2023-04-19T12:02:51;99936.50;;;6.14;100.00
48352;BME280;34163;49.314;6.752;2023-04-19T12:05:17;99940.88;;;6.15;100.00
48352;BME280;34163;49.314;6.752;2023-04-19T12:08:01;99946.09;;;6.18;100.00
48352;BME280;34163;49.314;6.752;2023-04-19T12:10:27;99937.47;;;6.11;100.00
48352;BME280;34163;49.314;6.752;2023-04-19T12:12:52;99937.16;;;6.24;100.00
48352;BME280;34163;49.314;6.752;2023-04-19T12:15:17;99935.84;;;6.04;100.00
48352;BME280;34163;49.314;6.752;2023-04-19T12:17:58;99934.16;;;6.03;100.00
48352;BME280;34163;49.314;6.752;2023-04-19T12:22:54;99931.53;;;6.02;100.00
48352;BME280;34163;49.314;6.752;2023-04-19T12:25:19;99930.63;;;6.03;100.00
48352;BME280;34163;49.314;6.752;2023-04-19T12:27:44;99931.53;;;6.02;100.00
48352;BME280;34163;49.314;6.752;2023-04-19T12:30:10;99925.25;;;6.07;100.00
48352;BME280;34163;49.314;6.752;2023-04-19T12:32:35;99920.94;;;6.05;100.00
48352;BME280;34163;49.314;6.752;2023-04-19T12:35:00;99927.22;;;5.97;100.00
48352;BME280;34163;49.314;6.752;2023-04-19T12:37:26;99914.94;;;5.98;100.00
48352;BME280;34163;49.314;6.752;2023-04-19T12:39:54;99914.09;;;5.97;100.00
48352;BME280;34163;49.314;6.752;2023-04-19T12:42:19;99917.63;;;5.93;100.00
48352;BME280;34163;49.314;6.752;2023-04-19T12:44:45;99916.00;;;5.89;100.00
48352;BME280;34163;49.314;6.752;2023-04-19T12:47:10;99916.00;;;5.89;100.00
48352;BME280;34163;49.314;6.752;2023-04-19T12:49:36;99915.06;;;5.90;100.00
48352;BME280;34163;49.314;6.752;2023-04-19T12:52:02;99913.34;;;5.89;100.00
48352;BME280;34163;49.314;6.752;2023-04-19T12:54:27;99912.44;;;5.90;100.00
48352;BME280;34163;49.314;6.752;2023-04-19T12:56:52;99903.78;;;5.85;100.00
48352;BME280;34163;49.314;6.752;2023-04-19T12:59:17;99908.09;;;5.89;100.00
48352;BME280;34163;49.314;6.752;2023-04-19T13:01:43;99906.25;;;5.93;100.00
48352;BME280;34163;49.314;6.752;2023-04-19T13:04:08;99894.03;;;5.90;100.00
48352;BME280;34163;49.314;6.752;2023-04-19T13:06:35;99895.03;;;5.85;100.00
48352;BME280;34163;49.314;6.752;2023-04-19T13:09:01;99893.13;;;5.91;100.00
48352;BME280;34163;49.314;6.752;2023-04-19T13:11:26;99890.63;;;5.85;100.00
48352;BME280;34163;49.314;6.752;2023-04-19T13:13:51;99886.25;;;5.87;100.00
48352;BME280;34163;49.314;6.752;2023-04-19T13:16:19;99884.47;;;5.88;100.00
48352;BME280;34163;49.314;6.752;2023-04-19T13:18:44;99878.28;;;5.89;100.00
48352;BME280;34163;49.314;6.752;2023-04-19T13:21:10;99877.56;;;5.82;100.00
48352;BME280;34163;49.314;6.752;2023-04-19T13:23:35;99870.34;;;5.90;100.00
48352;BME280;34163;49.314;6.752;2023-04-19T13:26:01;99866.97;;;5.85;100.00
48352;BME280;34163;49.314;6.752;2023-04-19T13:28:26;99865.09;;;5.90;100.00
48352;BME280;34163;49.314;6.752;2023-04-19T13:30:52;99865.19;;;5.87;100.00
48352;BME280;34163;49.314;6.752;2023-04-19T13:33:17;99865.25;;;5.84;100.00
48352;BME280;34163;49.314;6.752;2023-04-19T13:35:42;99856.38;;;5.88;100.00
48352;BME280;34163;49.314;6.752;2023-04-19T13:38:09;99854.75;;;5.84;100.00
48352;BME280;34163;49.314;6.752;2023-04-19T13:40:34;99859.94;;;5.87;100.00
48352;BME280;34163;49.314;6.752;2023-04-19T13:42:59;99851.09;;;5.90;100.00
48352;BME280;34163;49.314;6.752;2023-04-19T13:45:24;99851.28;;;5.80;100.00
48352;BME280;34163;49.314;6.752;2023-04-19T13:47:50;99850.34;;;5.85;100.00
48352;BME280;34163;49.314;6.752;2023-04-19T13:50:16;99845.75;;;5.93;100.00
48352;BME280;34163;49.314;6.752;2023-04-19T13:52:41;99845.06;;;5.85;100.00
48352;BME280;34163;49.314;6.752;2023-04-19T13:55:06;99843.25;;;5.88;100.00
48352;BME280;34163;49.314;6.752;2023-04-19T13:57:32;99847.75;;;5.83;100.00
48352;BME280;34163;49.314;6.752;2023-04-19T13:59:57;99844.91;;;5.92;100.00
48352;BME280;34163;49.314;6.752;2023-04-19T14:02:24;99837.06;;;5.91;100.00
48352;BME280;34163;49.314;6.752;2023-04-19T14:04:50;99833.56;;;5.89;100.00
48352;BME280;34163;49.314;6.752;2023-04-19T14:07:15;99831.91;;;5.86;100.00
48352;BME280;34163;49.314;6.752;2023-04-19T14:09:40;99826.63;;;5.86;100.00
48352;BME280;34163;49.314;6.752;2023-04-19T14:12:06;99824.91;;;5.85;100.00
48352;BME280;34163;49.314;6.752;2023-04-19T14:14:33;99816.13;;;5.86;100.00
48352;BME280;34163;49.314;6.752;2023-04-19T14:16:58;99816.97;;;5.87;100.00
48352;BME280;34163;49.314;6.752;2023-04-19T14:19:23;99812.66;;;5.84;100.00
48352;BME280;34163;49.314;6.752;2023-04-19T14:21:48;99806.41;;;5.88;100.00
48352;BME280;34163;49.314;6.752;2023-04-19T14:24:14;99804.72;;;5.87;100.00
48352;BME280;34163;49.314;6.752;2023-04-19T14:26:39;99796.97;;;5.81;100.00
48352;BME280;34163;49.314;6.752;2023-04-19T14:29:05;99796.84;;;5.86;100.00
48352;BME280;34163;49.314;6.752;2023-04-19T14:31:30;99794.19;;;5.87;100.00
48352;BME280;34163;49.314;6.752;2023-04-19T14:33:55;99781.19;;;5.81;100.00
48352;BME280;34163;49.314;6.752;2023-04-19T14:36:21;99788.16;;;5.82;100.00
48352;BME280;34163;49.314;6.752;2023-04-19T14:38:46;99779.44;;;5.80;100.00
48352;BME280;34163;49.314;6.752;2023-04-19T14:41:12;99776.81;;;5.80;100.00
48352;BME280;34163;49.314;6.752;2023-04-19T14:43:37;99778.56;;;5.81;100.00
48352;BME280;34163;49.314;6.752;2023-04-19T14:46:02;99767.19;;;5.79;100.00
48352;BME280;34163;49.314;6.752;2023-04-19T14:48:28;99764.56;;;5.79;100.00
48352;BME280;34163;49.314;6.752;2023-04-19T14:50:54;99767.25;;;5.76;100.00
48352;BME280;34163;49.314;6.752;2023-04-19T14:53:19;99755.91;;;5.74;100.00
48352;BME280;34163;49.314;6.752;2023-04-19T14:55:45;99756.66;;;5.79;100.00
48352;BME280;34163;49.314;6.752;2023-04-19T14:58:10;99755.78;;;5.80;100.00
48352;BME280;34163;49.314;6.752;2023-04-19T15:00:35;99747.88;;;5.80;100.00
48352;BME280;34163;49.314;6.752;2023-04-19T15:03:00;99751.44;;;5.77;100.00
48352;BME280;34163;49.314;6.752;2023-04-19T15:05:26;99743.47;;;5.80;100.00
48352;BME280;34163;49.314;6.752;2023-04-19T15:07:51;99746.00;;;5.85;100.00
48352;BME280;34163;49.314;6.752;2023-04-19T15:10:16;99733.78;;;5.84;100.00
48352;BME280;34163;49.314;6.752;2023-04-19T15:12:42;99734.66;;;5.83;100.00
48352;BME280;34163;49.314;6.752;2023-04-19T15:15:07;99728.56;;;5.82;100.00
48352;BME280;34163;49.314;6.752;2023-04-19T15:17:32;99731.16;;;5.84;100.00
48352;BME280;34163;49.314;6.752;2023-04-19T15:19:58;99727.63;;;5.83;100.00
48352;BME280;34163;49.314;6.752;2023-04-19T15:22:23;99724.19;;;5.81;100.00
48352;BME280;34163;49.314;6.752;2023-04-19T15:24:48;99723.34;;;5.81;100.00
48352;BME280;34163;49.314;6.752;2023-04-19T15:27:14;99716.47;;;5.74;100.00
48352;BME280;34163;49.314;6.752;2023-04-19T15:29:39;99723.47;;;5.75;100.00
48352;BME280;34163;49.314;6.752;2023-04-19T15:32:12;99719.78;;;5.82;100.00
48352;BME280;34163;49.314;6.752;2023-04-19T15:34:39;99721.63;;;5.78;100.00
48352;BME280;34163;49.314;6.752;2023-04-19T15:37:05;99720.56;;;5.87;100.00
48352;BME280;34163;49.314;6.752;2023-04-19T15:39:30;99717.13;;;5.83;100.00
48352;BME280;34163;49.314;6.752;2023-04-19T15:41:56;99721.66;;;5.77;100.00
48352;BME280;34163;49.314;6.752;2023-04-19T15:44:22;99722.44;;;5.80;100.00
48352;BME280;34163;49.314;6.752;2023-04-19T15:46:47;99722.47;;;5.79;100.00
48352;BME280;34163;49.314;6.752;2023-04-19T15:49:13;99723.19;;;5.87;100.00
48352;BME280;34163;49.314;6.752;2023-04-19T15:51:38;99721.59;;;5.80;100.00
48352;BME280;34163;49.314;6.752;2023-04-19T15:54:03;99716.63;;;5.68;100.00
48352;BME280;34163;49.314;6.752;2023-04-19T15:56:29;99720.97;;;5.70;100.00
48352;BME280;34163;49.314;6.752;2023-04-19T15:58:55;99732.19;;;5.77;100.00
48352;BME280;34163;49.314;6.752;2023-04-19T16:01:20;99725.34;;;5.70;100.00
48352;BME280;34163;49.314;6.752;2023-04-19T16:03:47;99723.53;;;5.72;100.00
48352;BME280;34163;49.314;6.752;2023-04-19T16:06:12;99721.88;;;5.68;100.00
48352;BME280;34163;49.314;6.752;2023-04-19T16:08:37;99722.66;;;5.73;100.00
48352;BME280;34163;49.314;6.752;2023-04-19T16:11:04;99719.78;;;5.82;100.00
48352;BME280;34163;49.314;6.752;2023-04-19T16:13:29;99717.34;;;5.74;100.00
48352;BME280;34163;49.314;6.752;2023-04-19T16:15:54;99723.69;;;5.66;100.00
48352;BME280;34163;49.314;6.752;2023-04-19T16:18:20;99719.22;;;5.69;100.00
48352;BME280;34163;49.314;6.752;2023-04-19T16:20:45;99719.25;;;5.68;100.00
48352;BME280;34163;49.314;6.752;2023-04-19T16:23:11;99714.91;;;5.67;100.00
48352;BME280;34163;49.314;6.752;2023-04-19T16:25:38;99709.59;;;5.70;100.00
48352;BME280;34163;49.314;6.752;2023-04-19T16:28:05;99720.13;;;5.68;100.00
48352;BME280;34163;49.314;6.752;2023-04-19T16:30:30;99720.16;;;5.67;100.00
48352;BME280;34163;49.314;6.752;2023-04-19T16:32:56;99717.56;;;5.65;100.00
48352;BME280;34163;49.314;6.752;2023-04-19T16:35:22;99711.50;;;5.61;100.00
48352;BME280;34163;49.314;6.752;2023-04-19T16:37:47;99720.06;;;5.71;100.00
48352;BME280;34163;49.314;6.752;2023-04-19T16:40:12;99719.44;;;5.60;100.00
48352;BME280;34163;49.314;6.752;2023-04-19T16:42:38;99710.72;;;5.58;100.00
48352;BME280;34163;49.314;6.752;2023-04-19T16:45:04;99711.50;;;5.61;100.00
48352;BME280;34163;49.314;6.752;2023-04-19T16:47:30;99714.28;;;5.57;100.00
48352;BME280;34163;49.314;6.752;2023-04-19T16:49:56;99712.53;;;5.56;100.00
48352;BME280;34163;49.314;6.752;2023-04-19T16:52:22;99704.69;;;5.54;100.00
48352;BME280;34163;49.314;6.752;2023-04-19T16:54:47;99701.16;;;5.55;100.00
48352;BME280;34163;49.314;6.752;2023-04-19T16:57:12;99705.50;;;5.56;100.00
48352;BME280;34163;49.314;6.752;2023-04-19T16:59:37;99702.06;;;5.54;100.00
48352;BME280;34163;49.314;6.752;2023-04-19T17:02:03;99709.81;;;5.60;100.00
48352;BME280;34163;49.314;6.752;2023-04-19T17:04:28;99707.41;;;5.50;100.00
48352;BME280;34163;49.314;6.752;2023-04-19T17:06:53;99704.69;;;5.54;100.00
48352;BME280;34163;49.314;6.752;2023-04-19T17:09:19;99709.81;;;5.60;100.00
48352;BME280;34163;49.314;6.752;2023-04-19T17:11:45;99718.50;;;5.62;100.00
48352;BME280;34163;49.314;6.752;2023-04-19T17:14:10;99709.88;;;5.57;100.00
48352;BME280;34163;49.314;6.752;2023-04-19T17:16:35;99723.13;;;5.53;100.00
48352;BME280;34163;49.314;6.752;2023-04-19T17:19:00;99715.19;;;5.54;100.00
48352;BME280;34163;49.314;6.752;2023-04-19T17:21:26;99716.00;;;5.56;100.00
48352;BME280;34163;49.314;6.752;2023-04-19T17:23:51;99719.63;;;5.52;100.00
48352;BME280;34163;49.314;6.752;2023-04-19T17:26:17;99720.59;;;5.48;100.00
48352;BME280;34163;49.314;6.752;2023-04-19T17:28:42;99718.22;;;7.06;100.00
48352;BME280;34163;49.314;6.752;2023-04-19T17:31:07;99720.41;;;7.22;100.00
48352;BME280;34163;49.314;6.752;2023-04-19T17:33:33;99718.75;;;6.24;100.00
48352;BME280;34163;49.314;6.752;2023-04-19T17:35:58;99729.31;;;5.88;100.00
48352;BME280;34163;49.314;6.752;2023-04-19T17:38:23;99723.41;;;5.78;100.00
48352;BME280;34163;49.314;6.752;2023-04-19T17:40:48;99727.06;;;5.71;100.00
48352;BME280;34163;49.314;6.752;2023-04-19T17:43:14;99722.53;;;5.77;100.00
48352;BME280;34163;49.314;6.752;2023-04-19T17:45:39;99728.72;;;5.75;100.00
48352;BME280;34163;49.314;6.752;2023-04-19T17:48:04;99729.81;;;5.66;100.00
48352;BME280;34163;49.314;6.752;2023-04-19T17:50:30;99739.56;;;5.61;100.00
48352;BME280;34163;49.314;6.752;2023-04-19T17:52:55;99732.72;;;5.55;100.00
48352;BME280;34163;49.314;6.752;2023-04-19T17:55:20;99733.63;;;5.53;100.00
48352;BME280;34163;49.314;6.752;2023-04-19T17:57:47;99738.94;;;5.50;100.00
48352;BME280;34163;49.314;6.752;2023-04-19T18:00:12;99734.22;;;6.03;100.00
48352;BME280;34163;49.314;6.752;2023-04-19T18:02:38;99734.81;;;6.47;100.00
48352;BME280;34163;49.314;6.752;2023-04-19T18:05:04;99739.44;;;6.72;100.00
48352;BME280;34163;49.314;6.752;2023-04-19T18:07:29;99742.38;;;6.93;100.00
48352;BME280;34163;49.314;6.752;2023-04-19T18:09:55;99747.25;;;7.05;100.00
48352;BME280;34163;49.314;6.752;2023-04-19T18:12:21;99749.59;;;7.16;100.00
48352;BME280;34163;49.314;6.752;2023-04-19T18:14:46;99747.59;;;7.24;100.00
48352;BME280;34163;49.314;6.752;2023-04-19T18:17:11;99749.16;;;7.31;100.00
48352;BME280;34163;49.314;6.752;2023-04-19T18:19:37;99748.97;;;7.37;100.00
48352;BME280;34163;49.314;6.752;2023-04-19T18:22:02;99740.03;;;7.41;100.00
48352;BME280;34163;49.314;6.752;2023-04-19T18:24:27;99751.25;;;7.48;100.00
48352;BME280;34163;49.314;6.752;2023-04-19T18:26:52;99747.63;;;7.52;100.00
48352;BME280;34163;49.314;6.752;2023-04-19T18:29:18;99750.91;;;7.59;100.00
48352;BME280;34163;49.314;6.752;2023-04-19T18:31:45;99750.03;;;7.60;100.00
48352;BME280;34163;49.314;6.752;2023-04-19T18:34:10;99747.28;;;7.63;100.00
48352;BME280;34163;49.314;6.752;2023-04-19T18:36:35;99747.25;;;7.64;100.00
48352;BME280;34163;49.314;6.752;2023-04-19T18:39:00;99753.28;;;7.68;100.00
48352;BME280;34163;49.314;6.752;2023-04-19T18:41:26;99758.47;;;7.71;100.00
48352;BME280;34163;49.314;6.752;2023-04-19T18:43:51;99760.19;;;7.72;100.00
48352;BME280;34163;49.314;6.752;2023-04-19T18:46:18;99760.06;;;7.75;100.00
48352;BME280;34163;49.314;6.752;2023-04-19T18:48:45;99759.97;;;7.78;100.00
48352;BME280;34163;49.314;6.752;2023-04-19T18:51:10;99770.47;;;7.80;100.00
48352;BME280;34163;49.314;6.752;2023-04-19T18:53:36;99773.94;;;7.82;100.00
48352;BME280;34163;49.314;6.752;2023-04-19T18:56:01;99760.75;;;7.82;100.00
48352;BME280;34163;49.314;6.752;2023-04-19T18:58:26;99773.84;;;7.85;100.00
48352;BME280;34163;49.314;6.752;2023-04-19T19:00:52;99772.88;;;7.88;100.00
48352;BME280;34163;49.314;6.752;2023-04-19T19:03:19;99773.72;;;7.90;100.00
48352;BME280;34163;49.314;6.752;2023-04-19T19:05:45;99782.44;;;7.92;100.00
48352;BME280;34163;49.314;6.752;2023-04-19T19:08:10;99784.97;;;7.95;100.00
48352;BME280;34163;49.314;6.752;2023-04-19T19:10:36;99790.25;;;7.95;100.00
48352;BME280;34163;49.314;6.752;2023-04-19T19:13:01;99782.34;;;7.95;100.00
48352;BME280;34163;49.314;6.752;2023-04-19T19:15:26;99790.16;;;7.98;100.00
48352;BME280;34163;49.314;6.752;2023-04-19T19:17:52;99782.16;;;8.01;100.00
48352;BME280;34163;49.314;6.752;2023-04-19T19:20:17;99783.00;;;8.02;100.00
48352;BME280;34163;49.314;6.752;2023-04-19T19:22:43;99786.44;;;8.04;100.00
48352;BME280;34163;49.314;6.752;2023-04-19T19:25:09;99786.44;;;8.04;100.00
48352;BME280;34163;49.314;6.752;2023-04-19T19:27:35;99788.97;;;8.07;100.00
48352;BME280;34163;49.314;6.752;2023-04-19T19:30:01;99798.53;;;8.11;100.00
48352;BME280;34163;49.314;6.752;2023-04-19T19:32:27;99799.38;;;8.11;100.00
48352;BME280;34163;49.314;6.752;2023-04-19T19:34:52;99802.88;;;8.12;100.00
48352;BME280;34163;49.314;6.752;2023-04-19T19:37:18;99794.88;;;8.15;100.00
48352;BME280;34163;49.314;6.752;2023-04-19T19:39:43;99801.78;;;8.19;100.00
48352;BME280;34163;49.314;6.752;2023-04-19T19:42:08;99802.59;;;8.21;100.00
48352;BME280;34163;49.314;6.752;2023-04-19T19:44:35;99806.09;;;8.22;100.00
48352;BME280;34163;49.314;6.752;2023-04-19T19:47:01;99801.63;;;8.24;100.00
48352;BME280;34163;49.314;6.752;2023-04-19T19:49:26;99803.38;;;8.23;100.00
48352;BME280;34163;49.314;6.752;2023-04-19T19:51:51;99802.50;;;8.24;100.00
48352;BME280;34163;49.314;6.752;2023-04-19T19:54:19;99802.50;;;8.24;100.00
48352;BME280;34163;49.314;6.752;2023-04-19T19:56:47;99810.34;;;8.26;100.00
48352;BME280;34163;49.314;6.752;2023-04-19T19:59:12;99814.75;;;8.27;100.00
48352;BME280;34163;49.314;6.752;2023-04-19T20:01:38;99813.75;;;8.29;100.00
48352;BME280;34163;49.314;6.752;2023-04-19T20:04:03;99818.97;;;8.31;100.00
48352;BME280;34163;49.314;6.752;2023-04-19T20:06:30;99819.03;;;8.29;100.00
48352;BME280;34163;49.314;6.752;2023-04-19T20:08:56;99804.94;;;8.30;100.00
48352;BME280;34163;49.314;6.752;2023-04-19T20:11:22;99807.53;;;8.32;100.00
48352;BME280;34163;49.314;6.752;2023-04-19T20:13:47;99810.97;;;8.34;100.00
48352;BME280;34163;49.314;6.752;2023-04-19T20:16:13;99810.16;;;8.32;100.00
48352;BME280;34163;49.314;6.752;2023-04-19T20:18:38;99810.97;;;8.34;100.00
48352;BME280;34163;49.314;6.752;2023-04-19T20:21:06;99809.16;;;8.36;100.00
48352;BME280;34163;49.314;6.752;2023-04-19T20:23:31;99807.41;;;8.35;100.00
48352;BME280;34163;49.314;6.752;2023-04-19T20:25:57;99800.31;;;8.37;100.00
48352;BME280;34163;49.314;6.752;2023-04-19T20:28:23;99805.53;;;8.39;100.00
48352;BME280;34163;49.314;6.752;2023-04-19T20:30:50;99809.91;;;8.40;100.00
48352;BME280;34163;49.314;6.752;2023-04-19T20:33:15;99814.25;;;8.41;100.00
48352;BME280;34163;49.314;6.752;2023-04-19T20:35:40;99812.50;;;8.41;100.00
48352;BME280;34163;49.314;6.752;2023-04-19T20:38:06;99812.44;;;8.44;100.00
48352;BME280;34163;49.314;6.752;2023-04-19T20:40:32;99814.13;;;8.45;100.00
48352;BME280;34163;49.314;6.752;2023-04-19T20:42:57;99816.78;;;8.45;100.00
48352;BME280;34163;49.314;6.752;2023-04-19T20:45:22;99813.19;;;8.48;100.00
48352;BME280;34163;49.314;6.752;2023-04-19T20:47:49;99814.13;;;8.45;100.00
48352;BME280;34163;49.314;6.752;2023-04-19T20:50:16;99824.66;;;8.47;100.00
48352;BME280;34163;49.314;6.752;2023-04-19T20:52:41;99822.91;;;8.47;100.00